sensor_id;sensor_type;location;lat;lon;timestamp;pressure;altitude;pressure_sealevel;temperature;humidity
10008;BME280;5043;41.766;26.204;2023-05-22T00:00:31;100523.16;;;17.79;89.58
10008;BME280;5043;41.766;26.204;2023-05-22T00:02:57;100526.66;;;17.80;89.54
10008;BME280;5043;41.766;26.204;2023-05-22T00:05:22;100535.22;;;17.83;89.33
10008;BME280;5043;41.766;26.204;2023-05-22T00:07:48;100541.72;;;17.89;89.41
10008;BME280;5043;41.766;26.204;2023-05-22T00:10:14;100518.19;;;17.84;89.67
10008;BME280;5043;41.766;26.204;2023-05-22T00:12:39;100523.69;;;17.83;89.89
10008;BME280;5043;41.766;26.204;2023-05-22T00:15:05;100500.28;;;17.69;90.19
10008;BME280;5043;41.766;26.204;2023-05-22T00:17:31;100515.81;;;17.73;91.05
10008;BME280;5043;41.766;26.204;2023-05-22T00:19:58;100532.50;;;17.75;91.91
10008;BME280;5043;41.766;26.204;2023-05-22T00:22:28;100517.63;;;17.65;92.85
10008;BME280;5043;41.766;26.204;2023-05-22T00:24:56;100521.59;;;17.61;93.11
10008;BME280;5043;41.766;26.204;2023-05-22T00:27:21;100464.91;;;17.33;93.30
10008;BME280;5043;41.766;26.204;2023-05-22T00:29:47;100519.41;;;17.56;94.52
10008;BME280;5043;41.766;26.204;2023-05-22T00:32:12;100520.78;;;17.35;96.15
10008;BME280;5043;41.766;26.204;2023-05-22T00:34:38;100460.56;;;16.98;96.49
10008;BME280;5043;41.766;26.204;2023-05-22T00:37:03;100515.75;;;17.32;97.31
10008;BME280;5043;41.766;26.204;2023-05-22T00:39:29;100533.75;;;17.30;97.57
10008;BME280;5043;41.766;26.204;2023-05-22T00:41:55;100502.81;;;17.19;97.58
10008;BME280;5043;41.766;26.204;2023-05-22T00:44:20;100459.13;;;16.86;97.44
10008;BME280;5043;41.766;26.204;2023-05-22T00:46:47;100497.59;;;17.09;97.84
10008;BME280;5043;41.766;26.204;2023-05-22T00:49:12;100538.41;;;17.28;98.04
10008;BME280;5043;41.766;26.204;2023-05-22T00:51:38;100499.66;;;17.15;97.99
10008;BME280;5043;41.766;26.204;2023-05-22T00:54:04;100461.66;;;16.88;98.18
10008;BME280;5043;41.766;26.204;2023-05-22T00:56:30;100539.38;;;17.27;98.50
10008;BME280;5043;41.766;26.204;2023-05-22T00:58:56;100514.06;;;17.05;99.05
10008;BME280;5043;41.766;26.204;2023-05-22T01:01:22;100474.25;;;16.78;99.21
10008;BME280;5043;41.766;26.204;2023-05-22T01:03:49;100517.28;;;17.08;98.92
10008;BME280;5043;41.766;26.204;2023-05-22T01:06:15;100508.34;;;17.00;98.43
10008;BME280;5043;41.766;26.204;2023-05-22T01:08:42;100530.22;;;17.03;99.32
10008;BME280;5043;41.766;26.204;2023-05-22T01:11:24;100520.53;;;17.02;99.02
10008;BME280;5043;41.766;26.204;2023-05-22T01:14:05;100516.91;;;17.03;98.99
10008;BME280;5043;41.766;26.204;2023-05-22T01:16:58;100519.72;;;17.02;98.79
10008;BME280;5043;41.766;26.204;2023-05-22T01:24:35;100518.22;;;16.99;99.87
10008;BME280;5043;41.766;26.204;2023-05-22T01:30:19;100502.78;;;16.85;100.00
10008;BME280;5043;41.766;26.204;2023-05-22T01:32:48;100448.84;;;16.48;100.00
10008;BME280;5043;41.766;26.204;2023-05-22T01:35:16;100496.09;;;16.64;100.00
10008;BME280;5043;41.766;26.204;2023-05-22T01:37:45;100509.19;;;16.75;100.00
10008;BME280;5043;41.766;26.204;2023-05-22T01:40:12;100509.34;;;16.73;100.00
10008;BME280;5043;41.766;26.204;2023-05-22T01:42:38;100509.81;;;16.69;100.00
10008;BME280;5043;41.766;26.204;2023-05-22T01:45:08;100510.41;;;16.63;100.00
10008;BME280;5043;41.766;26.204;2023-05-22T01:47:33;100513.63;;;16.66;100.00
10008;BME280;5043;41.766;26.204;2023-05-22T01:49:59;100510.34;;;16.55;100.00
10008;BME280;5043;41.766;26.204;2023-05-22T01:52:58;100504.63;;;16.67;100.00
10008;BME280;5043;41.766;26.204;2023-05-22T01:55:33;100504.16;;;16.72;100.00
10008;BME280;5043;41.766;26.204;2023-05-22T02:01:09;100494.53;;;16.79;100.00
10008;BME280;5043;41.766;26.204;2023-05-22T02:03:38;100428.34;;;16.48;100.00
10008;BME280;5043;41.766;26.204;2023-05-22T02:06:05;100502.91;;;16.84;100.00
10008;BME280;5043;41.766;26.204;2023-05-22T02:08:33;100484.81;;;16.87;99.65
10008;BME280;5043;41.766;26.204;2023-05-22T02:11:00;100506.41;;;16.84;100.00
10008;BME280;5043;41.766;26.204;2023-05-22T02:13:27;100497.06;;;16.80;99.77
10008;BME280;5043;41.766;26.204;2023-05-22T02:15:53;100482.06;;;16.79;99.53
10008;BME280;5043;41.766;26.204;2023-05-22T02:18:19;100436.22;;;16.50;98.92
10008;BME280;5043;41.766;26.204;2023-05-22T02:20:45;100489.22;;;16.79;99.97
10008;BME280;5043;41.766;26.204;2023-05-22T02:23:11;100490.44;;;16.84;100.00
10008;BME280;5043;41.766;26.204;2023-05-22T02:25:36;100479.41;;;16.79;100.00
10008;BME280;5043;41.766;26.204;2023-05-22T02:28:02;100442.50;;;16.49;100.00
10008;BME280;5043;41.766;26.204;2023-05-22T02:30:27;100487.72;;;16.76;100.00
10008;BME280;5043;41.766;26.204;2023-05-22T02:32:52;100482.69;;;16.73;100.00
10008;BME280;5043;41.766;26.204;2023-05-22T02:35:18;100504.78;;;16.66;100.00
10008;BME280;5043;41.766;26.204;2023-05-22T02:37:44;100486.44;;;16.63;100.00
10008;BME280;5043;41.766;26.204;2023-05-22T02:40:10;100486.59;;;16.61;100.00
10008;BME280;5043;41.766;26.204;2023-05-22T02:42:35;100489.25;;;16.61;100.00
10008;BME280;5043;41.766;26.204;2023-05-22T02:45:01;100483.38;;;16.58;100.00
10008;BME280;5043;41.766;26.204;2023-05-22T02:47:27;100496.06;;;16.46;100.00
10008;BME280;5043;41.766;26.204;2023-05-22T02:49:53;100473.94;;;16.28;100.00
10008;BME280;5043;41.766;26.204;2023-05-22T02:52:18;100442.38;;;16.15;100.00
10008;BME280;5043;41.766;26.204;2023-05-22T02:54:44;100497.59;;;16.48;100.00
10008;BME280;5043;41.766;26.204;2023-05-22T02:57:09;100517.34;;;16.56;100.00
10008;BME280;5043;41.766;26.204;2023-05-22T02:59:35;100518.56;;;16.61;100.00
10008;BME280;5043;41.766;26.204;2023-05-22T03:02:01;100520.38;;;16.78;100.00
10008;BME280;5043;41.766;26.204;2023-05-22T03:04:26;100515.88;;;16.79;100.00
10008;BME280;5043;41.766;26.204;2023-05-22T03:06:54;100451.72;;;16.37;100.00
10008;BME280;5043;41.766;26.204;2023-05-22T03:09:19;100505.66;;;16.74;100.00
10008;BME280;5043;41.766;26.204;2023-05-22T03:11:45;100470.16;;;16.48;99.12
10008;BME280;5043;41.766;26.204;2023-05-22T03:14:10;100521.19;;;16.79;97.91
10008;BME280;5043;41.766;26.204;2023-05-22T03:16:36;100534.91;;;16.84;98.12
10008;BME280;5043;41.766;26.204;2023-05-22T03:19:08;100545.25;;;16.87;97.24
10008;BME280;5043;41.766;26.204;2023-05-22T03:21:34;100518.53;;;16.79;97.28
10008;BME280;5043;41.766;26.204;2023-05-22T03:23:59;100490.94;;;16.62;96.86
10008;BME280;5043;41.766;26.204;2023-05-22T03:26:24;100465.22;;;16.53;96.80
10008;BME280;5043;41.766;26.204;2023-05-22T03:28:52;100500.41;;;16.82;96.80
10008;BME280;5043;41.766;26.204;2023-05-22T03:31:18;100534.34;;;16.98;96.90
10008;BME280;5043;41.766;26.204;2023-05-22T03:33:43;100533.25;;;16.83;97.51
10008;BME280;5043;41.766;26.204;2023-05-22T03:36:09;100500.03;;;16.77;98.06
10008;BME280;5043;41.766;26.204;2023-05-22T03:38:34;100458.81;;;16.64;97.95
10008;BME280;5043;41.766;26.204;2023-05-22T03:40:59;100513.84;;;16.98;98.53
10008;BME280;5043;41.766;26.204;2023-05-22T03:43:25;100518.03;;;17.01;98.39
10008;BME280;5043;41.766;26.204;2023-05-22T03:45:50;100458.13;;;16.62;98.86
10008;BME280;5043;41.766;26.204;2023-05-22T03:48:16;100509.38;;;16.99;99.08
10008;BME280;5043;41.766;26.204;2023-05-22T03:50:41;100485.41;;;16.81;99.78
10008;BME280;5043;41.766;26.204;2023-05-22T03:53:06;100497.13;;;16.88;100.00
10008;BME280;5043;41.766;26.204;2023-05-22T03:55:32;100538.16;;;16.95;100.00
10008;BME280;5043;41.766;26.204;2023-05-22T03:57:57;100519.34;;;16.97;99.94
10008;BME280;5043;41.766;26.204;2023-05-22T04:00:23;100526.22;;;16.99;99.85
10008;BME280;5043;41.766;26.204;2023-05-22T04:02:48;100522.22;;;17.03;99.11
10008;BME280;5043;41.766;26.204;2023-05-22T04:05:14;100532.22;;;17.01;98.94
10008;BME280;5043;41.766;26.204;2023-05-22T04:07:40;100526.25;;;17.07;98.75
10008;BME280;5043;41.766;26.204;2023-05-22T04:10:06;100551.97;;;17.16;98.17
10008;BME280;5043;41.766;26.204;2023-05-22T04:12:32;100531.00;;;17.22;98.28
10008;BME280;5043;41.766;26.204;2023-05-22T04:14:57;100526.44;;;17.14;98.57
10008;BME280;5043;41.766;26.204;2023-05-22T04:17:23;100519.28;;;17.14;98.94
10008;BME280;5043;41.766;26.204;2023-05-22T04:19:48;100546.16;;;17.21;99.27
10008;BME280;5043;41.766;26.204;2023-05-22T04:22:13;100481.38;;;16.77;99.32
10008;BME280;5043;41.766;26.204;2023-05-22T04:24:40;100446.63;;;16.61;99.73
10008;BME280;5043;41.766;26.204;2023-05-22T04:27:05;100476.13;;;16.85;99.26
10008;BME280;5043;41.766;26.204;2023-05-22T04:29:31;100569.56;;;17.27;99.13
10008;BME280;5043;41.766;26.204;2023-05-22T04:31:56;100550.34;;;17.24;99.74
10008;BME280;5043;41.766;26.204;2023-05-22T04:34:21;100558.59;;;17.30;99.78
10008;BME280;5043;41.766;26.204;2023-05-22T04:36:48;100563.91;;;17.30;99.72
10008;BME280;5043;41.766;26.204;2023-05-22T04:39:13;100563.28;;;17.36;99.76
10008;BME280;5043;41.766;26.204;2023-05-22T04:41:39;100562.44;;;17.36;99.96
10008;BME280;5043;41.766;26.204;2023-05-22T04:44:05;100500.06;;;17.03;99.87
10008;BME280;5043;41.766;26.204;2023-05-22T04:46:32;100520.81;;;17.17;99.60
10008;BME280;5043;41.766;26.204;2023-05-22T04:48:59;100522.13;;;17.13;99.35
10008;BME280;5043;41.766;26.204;2023-05-22T04:51:25;100575.09;;;17.34;100.00
10008;BME280;5043;41.766;26.204;2023-05-22T04:53:50;100563.38;;;17.27;99.92
10008;BME280;5043;41.766;26.204;2023-05-22T04:56:16;100516.22;;;17.01;100.00
10008;BME280;5043;41.766;26.204;2023-05-22T04:58:41;100514.91;;;17.05;99.72
10008;BME280;5043;41.766;26.204;2023-05-22T05:01:06;100578.16;;;17.47;99.39
10008;BME280;5043;41.766;26.204;2023-05-22T05:03:33;100592.22;;;17.49;98.66
10008;BME280;5043;41.766;26.204;2023-05-22T05:05:58;100553.19;;;17.48;96.63
10008;BME280;5043;41.766;26.204;2023-05-22T05:08:24;100590.03;;;17.70;96.28
10008;BME280;5043;41.766;26.204;2023-05-22T05:10:50;100566.44;;;17.57;96.11
10008;BME280;5043;41.766;26.204;2023-05-22T05:13:15;100588.06;;;17.80;95.27
10008;BME280;5043;41.766;26.204;2023-05-22T05:15:41;100584.09;;;17.84;94.83
10008;BME280;5043;41.766;26.204;2023-05-22T05:18:06;100591.44;;;17.90;95.07
10008;BME280;5043;41.766;26.204;2023-05-22T05:20:32;100578.28;;;17.97;94.90
10008;BME280;5043;41.766;26.204;2023-05-22T05:22:57;100583.34;;;18.08;94.75
10008;BME280;5043;41.766;26.204;2023-05-22T05:25:23;100531.88;;;17.90;94.14
10008;BME280;5043;41.766;26.204;2023-05-22T05:27:48;100609.94;;;18.25;92.82
10008;BME280;5043;41.766;26.204;2023-05-22T05:30:13;100611.16;;;18.39;92.42
10008;BME280;5043;41.766;26.204;2023-05-22T05:32:39;100584.03;;;18.18;92.24
10008;BME280;5043;41.766;26.204;2023-05-22T05:35:05;100532.94;;;18.05;93.31
10008;BME280;5043;41.766;26.204;2023-05-22T05:37:30;100595.19;;;18.55;93.97
10008;BME280;5043;41.766;26.204;2023-05-22T05:39:56;100615.09;;;18.61;93.65
10008;BME280;5043;41.766;26.204;2023-05-22T05:42:21;100595.91;;;18.65;93.12
10008;BME280;5043;41.766;26.204;2023-05-22T05:44:46;100595.22;;;18.87;92.92
10008;BME280;5043;41.766;26.204;2023-05-22T05:47:12;100588.72;;;18.90;92.44
10008;BME280;5043;41.766;26.204;2023-05-22T05:49:38;100616.16;;;19.00;92.67
10008;BME280;5043;41.766;26.204;2023-05-22T05:52:03;100610.13;;;19.14;90.37
10008;BME280;5043;41.766;26.204;2023-05-22T05:54:29;100611.66;;;19.25;90.17
10008;BME280;5043;41.766;26.204;2023-05-22T05:56:54;100557.13;;;19.01;87.84
10008;BME280;5043;41.766;26.204;2023-05-22T05:59:19;100633.69;;;19.51;87.52
10008;BME280;5043;41.766;26.204;2023-05-22T06:01:46;100627.84;;;19.63;87.51
10008;BME280;5043;41.766;26.204;2023-05-22T06:04:12;100569.66;;;19.57;85.17
10008;BME280;5043;41.766;26.204;2023-05-22T06:06:38;100624.53;;;20.08;83.31
10008;BME280;5043;41.766;26.204;2023-05-22T06:09:04;100609.25;;;20.25;82.07
10008;BME280;5043;41.766;26.204;2023-05-22T06:11:31;100610.84;;;20.42;80.31
10008;BME280;5043;41.766;26.204;2023-05-22T06:13:56;100635.78;;;20.73;77.23
10008;BME280;5043;41.766;26.204;2023-05-22T06:16:24;100628.03;;;20.78;74.35
10008;BME280;5043;41.766;26.204;2023-05-22T06:18:49;100602.50;;;20.90;73.13
10008;BME280;5043;41.766;26.204;2023-05-22T06:21:17;100638.72;;;21.17;72.16
10008;BME280;5043;41.766;26.204;2023-05-22T06:23:45;100643.13;;;21.10;71.01
10008;BME280;5043;41.766;26.204;2023-05-22T06:26:11;100636.28;;;21.45;70.65
10008;BME280;5043;41.766;26.204;2023-05-22T06:28:38;100633.34;;;21.54;69.59
10008;BME280;5043;41.766;26.204;2023-05-22T06:31:03;100634.28;;;21.61;70.67
10008;BME280;5043;41.766;26.204;2023-05-22T06:33:29;100637.91;;;21.68;69.91
10008;BME280;5043;41.766;26.204;2023-05-22T06:35:55;100630.53;;;21.85;70.45
10008;BME280;5043;41.766;26.204;2023-05-22T06:38:20;100628.38;;;21.95;68.68
10008;BME280;5043;41.766;26.204;2023-05-22T06:40:46;100639.78;;;22.12;67.51
10008;BME280;5043;41.766;26.204;2023-05-22T06:43:11;100645.63;;;22.15;67.40
10008;BME280;5043;41.766;26.204;2023-05-22T06:45:37;100651.56;;;22.11;68.47
10008;BME280;5043;41.766;26.204;2023-05-22T06:48:02;100649.78;;;22.32;67.33
10008;BME280;5043;41.766;26.204;2023-05-22T06:50:29;100651.88;;;22.51;65.82
10008;BME280;5043;41.766;26.204;2023-05-22T06:52:55;100636.56;;;22.52;64.90
10008;BME280;5043;41.766;26.204;2023-05-22T06:55:21;100647.50;;;22.65;65.20
10008;BME280;5043;41.766;26.204;2023-05-22T06:57:46;100647.03;;;22.76;60.56
10008;BME280;5043;41.766;26.204;2023-05-22T07:00:12;100641.16;;;22.87;60.51
10008;BME280;5043;41.766;26.204;2023-05-22T07:02:38;100643.97;;;23.00;59.83
10008;BME280;5043;41.766;26.204;2023-05-22T07:05:04;100642.31;;;23.42;53.90
10008;BME280;5043;41.766;26.204;2023-05-22T07:07:30;100627.41;;;23.46;50.61
10008;BME280;5043;41.766;26.204;2023-05-22T07:09:56;100632.50;;;23.62;48.66
10008;BME280;5043;41.766;26.204;2023-05-22T07:12:21;100529.78;;;22.88;48.17
10008;BME280;5043;41.766;26.204;2023-05-22T07:14:51;100642.44;;;23.61;48.45
10008;BME280;5043;41.766;26.204;2023-05-22T07:17:17;100619.94;;;23.41;48.87
10008;BME280;5043;41.766;26.204;2023-05-22T07:19:44;100641.47;;;23.69;48.60
10008;BME280;5043;41.766;26.204;2023-05-22T07:22:10;100642.44;;;23.61;49.08
10008;BME280;5043;41.766;26.204;2023-05-22T07:24:38;100643.63;;;23.80;48.45
10008;BME280;5043;41.766;26.204;2023-05-22T07:27:03;100633.25;;;23.77;48.00
10008;BME280;5043;41.766;26.204;2023-05-22T07:29:29;100635.81;;;23.91;48.99
10008;BME280;5043;41.766;26.204;2023-05-22T07:31:55;100634.22;;;24.04;47.73
10008;BME280;5043;41.766;26.204;2023-05-22T07:34:20;100636.41;;;24.15;46.29
10008;BME280;5043;41.766;26.204;2023-05-22T07:36:47;100634.06;;;24.05;47.22
10008;BME280;5043;41.766;26.204;2023-05-22T07:39:12;100636.69;;;23.99;48.16
10008;BME280;5043;41.766;26.204;2023-05-22T07:41:38;100633.53;;;23.88;49.00
10008;BME280;5043;41.766;26.204;2023-05-22T07:44:04;100616.38;;;23.68;49.66
10008;BME280;5043;41.766;26.204;2023-05-22T07:46:30;100654.88;;;23.56;50.89
10008;BME280;5043;41.766;26.204;2023-05-22T07:48:55;100643.19;;;23.76;50.65
10008;BME280;5043;41.766;26.204;2023-05-22T07:51:21;100582.78;;;23.64;49.63
10008;BME280;5043;41.766;26.204;2023-05-22T07:53:47;100647.59;;;23.84;50.46
10008;BME280;5043;41.766;26.204;2023-05-22T07:56:13;100635.03;;;23.98;50.92
10008;BME280;5043;41.766;26.204;2023-05-22T07:58:38;100633.66;;;24.08;50.99
10008;BME280;5043;41.766;26.204;2023-05-22T08:01:06;100623.69;;;24.43;47.98
10008;BME280;5043;41.766;26.204;2023-05-22T08:03:31;100616.91;;;24.73;47.58
10008;BME280;5043;41.766;26.204;2023-05-22T08:05:58;100623.84;;;25.02;45.53
10008;BME280;5043;41.766;26.204;2023-05-22T08:08:23;100626.97;;;24.99;46.27
10008;BME280;5043;41.766;26.204;2023-05-22T08:10:49;100617.19;;;25.04;45.82
10008;BME280;5043;41.766;26.204;2023-05-22T08:13:17;100597.28;;;25.32;45.32
10008;BME280;5043;41.766;26.204;2023-05-22T08:15:42;100607.25;;;25.64;45.01
10008;BME280;5043;41.766;26.204;2023-05-22T08:18:08;100610.31;;;25.87;43.86
10008;BME280;5043;41.766;26.204;2023-05-22T08:20:34;100608.44;;;25.94;43.80
10008;BME280;5043;41.766;26.204;2023-05-22T08:22:59;100554.66;;;25.60;43.98
10008;BME280;5043;41.766;26.204;2023-05-22T08:25:25;100598.28;;;25.70;44.17
10008;BME280;5043;41.766;26.204;2023-05-22T08:27:50;100604.13;;;25.60;45.10
10008;BME280;5043;41.766;26.204;2023-05-22T08:30:16;100593.13;;;25.62;45.51
10008;BME280;5043;41.766;26.204;2023-05-22T08:32:41;100602.22;;;25.80;45.66
10008;BME280;5043;41.766;26.204;2023-05-22T08:35:07;100602.59;;;26.10;44.65
10008;BME280;5043;41.766;26.204;2023-05-22T08:37:32;100607.78;;;26.18;39.34
10008;BME280;5043;41.766;26.204;2023-05-22T08:39:58;100623.75;;;26.33;37.73
10008;BME280;5043;41.766;26.204;2023-05-22T08:42:23;100603.31;;;26.37;38.49
10008;BME280;5043;41.766;26.204;2023-05-22T08:44:49;100610.53;;;26.49;38.62
10008;BME280;5043;41.766;26.204;2023-05-22T08:47:15;100599.88;;;26.54;39.31
10008;BME280;5043;41.766;26.204;2023-05-22T08:49:41;100602.53;;;26.61;39.65
10008;BME280;5043;41.766;26.204;2023-05-22T08:52:13;100603.59;;;26.60;38.97
10008;BME280;5043;41.766;26.204;2023-05-22T08:54:44;100609.22;;;26.65;38.28
10008;BME280;5043;41.766;26.204;2023-05-22T08:57:14;100557.22;;;26.12;38.67
10008;BME280;5043;41.766;26.204;2023-05-22T08:59:40;100602.34;;;26.63;38.29
10008;BME280;5043;41.766;26.204;2023-05-22T09:02:07;100599.03;;;26.60;37.92
10008;BME280;5043;41.766;26.204;2023-05-22T09:04:34;100600.19;;;26.78;38.75
10008;BME280;5043;41.766;26.204;2023-05-22T09:06:59;100564.03;;;26.66;38.85
10008;BME280;5043;41.766;26.204;2023-05-22T09:09:30;100587.19;;;26.93;39.08
10008;BME280;5043;41.766;26.204;2023-05-22T09:11:57;100598.53;;;26.77;36.41
10008;BME280;5043;41.766;26.204;2023-05-22T09:14:22;100598.75;;;26.75;35.20
10008;BME280;5043;41.766;26.204;2023-05-22T09:16:51;100594.78;;;26.71;34.83
10008;BME280;5043;41.766;26.204;2023-05-22T09:19:17;100587.75;;;26.63;35.27
10008;BME280;5043;41.766;26.204;2023-05-22T09:21:42;100577.09;;;26.31;36.24
10008;BME280;5043;41.766;26.204;2023-05-22T09:24:12;100600.03;;;26.22;35.74
10008;BME280;5043;41.766;26.204;2023-05-22T09:26:38;100594.31;;;26.43;35.03
10008;BME280;5043;41.766;26.204;2023-05-22T09:29:07;100601.78;;;26.47;35.59
10008;BME280;5043;41.766;26.204;2023-05-22T09:31:39;100601.22;;;26.39;35.43
10008;BME280;5043;41.766;26.204;2023-05-22T09:34:06;100539.75;;;26.02;35.53
10008;BME280;5043;41.766;26.204;2023-05-22T09:36:34;100567.84;;;26.01;35.18
10008;BME280;5043;41.766;26.204;2023-05-22T09:39:01;100598.78;;;26.24;35.47
10008;BME280;5043;41.766;26.204;2023-05-22T09:41:34;100572.81;;;26.10;36.08
10008;BME280;5043;41.766;26.204;2023-05-22T09:44:00;100600.00;;;26.28;36.37
10008;BME280;5043;41.766;26.204;2023-05-22T09:46:25;100599.22;;;26.66;35.92
10008;BME280;5043;41.766;26.204;2023-05-22T09:48:51;100602.91;;;26.78;34.06
10008;BME280;5043;41.766;26.204;2023-05-22T09:51:20;100626.66;;;26.76;34.30
10008;BME280;5043;41.766;26.204;2023-05-22T09:53:47;100606.56;;;26.90;34.43
10008;BME280;5043;41.766;26.204;2023-05-22T09:56:14;100581.41;;;26.83;34.35
10008;BME280;5043;41.766;26.204;2023-05-22T09:58:41;100606.78;;;27.19;34.02
10008;BME280;5043;41.766;26.204;2023-05-22T10:01:10;100601.38;;;27.44;33.86
10008;BME280;5043;41.766;26.204;2023-05-22T10:03:39;100603.97;;;27.57;33.67
10008;BME280;5043;41.766;26.204;2023-05-22T10:06:05;100607.22;;;27.48;33.67
10008;BME280;5043;41.766;26.204;2023-05-22T10:08:39;100578.50;;;27.40;33.28
10008;BME280;5043;41.766;26.204;2023-05-22T10:11:06;100552.91;;;27.54;33.01
10008;BME280;5043;41.766;26.204;2023-05-22T10:13:33;100601.66;;;27.97;33.43
10008;BME280;5043;41.766;26.204;2023-05-22T10:16:00;100594.06;;;27.87;33.71
10008;BME280;5043;41.766;26.204;2023-05-22T10:18:27;100533.44;;;27.39;33.63
10008;BME280;5043;41.766;26.204;2023-05-22T10:20:53;100549.72;;;27.57;33.61
10008;BME280;5043;41.766;26.204;2023-05-22T10:23:19;100578.16;;;27.91;33.72
10008;BME280;5043;41.766;26.204;2023-05-22T10:25:47;100581.78;;;28.21;33.22
10008;BME280;5043;41.766;26.204;2023-05-22T10:28:29;100580.75;;;28.22;33.78
10008;BME280;5043;41.766;26.204;2023-05-22T10:31:05;100557.53;;;28.08;33.22
10008;BME280;5043;41.766;26.204;2023-05-22T10:33:40;100564.84;;;28.08;34.07
10008;BME280;5043;41.766;26.204;2023-05-22T10:36:18;100571.31;;;28.25;33.65
10008;BME280;5043;41.766;26.204;2023-05-22T10:41:26;100564.09;;;28.48;32.94
10008;BME280;5043;41.766;26.204;2023-05-22T10:43:55;100564.38;;;28.29;33.33
10008;BME280;5043;41.766;26.204;2023-05-22T10:46:20;100551.47;;;28.54;32.77
10008;BME280;5043;41.766;26.204;2023-05-22T10:48:48;100544.00;;;28.68;32.51
10008;BME280;5043;41.766;26.204;2023-05-22T10:51:21;100520.16;;;28.70;32.39
10008;BME280;5043;41.766;26.204;2023-05-22T10:53:57;100501.75;;;28.72;32.19
10008;BME280;5043;41.766;26.204;2023-05-22T10:56:34;100503.38;;;28.73;31.67
10008;BME280;5043;41.766;26.204;2023-05-22T10:59:03;100491.81;;;28.89;31.76
10008;BME280;5043;41.766;26.204;2023-05-22T11:01:33;100469.38;;;28.70;32.31
10008;BME280;5043;41.766;26.204;2023-05-22T11:15:04;100510.78;;;29.42;30.99
10008;BME280;5043;41.766;26.204;2023-05-22T11:17:32;100517.50;;;29.62;30.33
10008;BME280;5043;41.766;26.204;2023-05-22T11:22:36;100504.69;;;29.74;30.64
10008;BME280;5043;41.766;26.204;2023-05-22T11:25:07;100501.63;;;29.71;29.95
10008;BME280;5043;41.766;26.204;2023-05-22T11:27:34;100458.91;;;29.71;29.51
10008;BME280;5043;41.766;26.204;2023-05-22T11:30:00;100447.34;;;29.64;30.31
10008;BME280;5043;41.766;26.204;2023-05-22T11:32:26;100505.25;;;30.28;29.84
10008;BME280;5043;41.766;26.204;2023-05-22T11:34:52;100451.91;;;29.99;28.98
10008;BME280;5043;41.766;26.204;2023-05-22T11:37:18;100500.03;;;30.38;28.91
10008;BME280;5043;41.766;26.204;2023-05-22T11:40:04;100489.97;;;30.55;27.99
10008;BME280;5043;41.766;26.204;2023-05-22T11:42:31;100501.78;;;30.60;27.66
10008;BME280;5043;41.766;26.204;2023-05-22T11:44:57;100453.22;;;30.41;27.24
10008;BME280;5043;41.766;26.204;2023-05-22T11:47:24;100471.06;;;30.20;27.61
10008;BME280;5043;41.766;26.204;2023-05-22T11:49:50;100477.09;;;30.22;28.16
10008;BME280;5043;41.766;26.204;2023-05-22T11:52:16;100481.72;;;30.50;28.05
10008;BME280;5043;41.766;26.204;2023-05-22T11:54:45;100475.56;;;30.71;27.26
10008;BME280;5043;41.766;26.204;2023-05-22T11:57:11;100483.63;;;31.16;26.83
10008;BME280;5043;41.766;26.204;2023-05-22T11:59:37;100461.28;;;31.36;27.17
10008;BME280;5043;41.766;26.204;2023-05-22T12:02:03;100472.13;;;31.69;26.25
10008;BME280;5043;41.766;26.204;2023-05-22T12:04:28;100469.56;;;31.84;26.46
10008;BME280;5043;41.766;26.204;2023-05-22T12:06:54;100458.53;;;31.96;26.60
10008;BME280;5043;41.766;26.204;2023-05-22T12:09:21;100463.50;;;31.99;25.84
10008;BME280;5043;41.766;26.204;2023-05-22T12:11:48;100459.69;;;31.78;26.00
10008;BME280;5043;41.766;26.204;2023-05-22T12:14:14;100453.66;;;31.98;26.13
10008;BME280;5043;41.766;26.204;2023-05-22T12:16:40;100427.16;;;31.98;25.28
10008;BME280;5043;41.766;26.204;2023-05-22T12:19:10;100451.47;;;32.21;25.78
10008;BME280;5043;41.766;26.204;2023-05-22T12:21:39;100419.03;;;32.30;25.32
10008;BME280;5043;41.766;26.204;2023-05-22T12:24:08;100443.34;;;32.31;24.97
10008;BME280;5043;41.766;26.204;2023-05-22T12:26:35;100437.63;;;31.41;25.40
10008;BME280;5043;41.766;26.204;2023-05-22T12:29:06;100436.84;;;31.24;25.79
10008;BME280;5043;41.766;26.204;2023-05-22T12:31:34;100381.25;;;31.47;25.31
10008;BME280;5043;41.766;26.204;2023-05-22T12:34:06;100417.41;;;31.80;26.18
10008;BME280;5043;41.766;26.204;2023-05-22T12:36:33;100379.13;;;31.75;25.26
10008;BME280;5043;41.766;26.204;2023-05-22T12:38:59;100422.28;;;31.78;25.54
10008;BME280;5043;41.766;26.204;2023-05-22T12:41:24;100419.47;;;32.22;25.73
10008;BME280;5043;41.766;26.204;2023-05-22T12:43:50;100422.31;;;32.58;25.30
10008;BME280;5043;41.766;26.204;2023-05-22T12:46:15;100411.94;;;32.61;24.77
10008;BME280;5043;41.766;26.204;2023-05-22T12:48:42;100408.84;;;32.52;25.00
10008;BME280;5043;41.766;26.204;2023-05-22T12:51:08;100411.53;;;32.79;24.73
10008;BME280;5043;41.766;26.204;2023-05-22T12:53:33;100402.72;;;32.40;24.78
10008;BME280;5043;41.766;26.204;2023-05-22T12:55:59;100389.03;;;32.08;25.01
10008;BME280;5043;41.766;26.204;2023-05-22T12:58:25;100369.41;;;32.43;24.64
10008;BME280;5043;41.766;26.204;2023-05-22T13:00:50;100410.69;;;32.78;25.01
10008;BME280;5043;41.766;26.204;2023-05-22T13:03:16;100390.03;;;32.24;25.52
10008;BME280;5043;41.766;26.204;2023-05-22T13:05:41;100355.66;;;31.74;26.01
10008;BME280;5043;41.766;26.204;2023-05-22T13:08:07;100419.47;;;32.22;25.17
10008;BME280;5043;41.766;26.204;2023-05-22T13:10:32;100398.88;;;31.61;25.66
10008;BME280;5043;41.766;26.204;2023-05-22T13:12:59;100337.94;;;31.50;25.21